createdAt,value
2022-08-14T00:03:45.861Z,4
2022-08-14T00:08:54.487Z,4.7
2022-08-14T00:14:02.455Z,5.1
2022-08-14T00:19:05.826Z,5.6
2022-08-14T00:24:13.442Z,5.8
2022-08-14T00:29:15.876Z,5.3
2022-08-14T00:34:35.827Z,5.7
2022-08-14T00:39:20.801Z,5.6
2022-08-14T00:44:26.571Z,6.8
2022-08-14T00:49:26.496Z,4.8
2022-08-14T00:54:33.293Z,5.4
2022-08-14T00:59:40.328Z,6.1
2022-08-14T01:04:52.537Z,17.3
2022-08-14T01:09:47.620Z,101.1
2022-08-14T01:14:51.241Z,65.8
2022-08-14T01:19:53.943Z,1087.3
2022-08-14T01:24:57.303Z,1104.4
2022-08-14T01:30:04.413Z,1091.8
2022-08-14T01:35:17.052Z,1079.1
2022-08-14T01:40:15.367Z,1104.4
2022-08-14T01:45:25.388Z,1104.4
2022-08-14T01:50:32.823Z,1026.9
2022-08-14T01:55:36.388Z,1084.9
2022-08-14T02:00:41.978Z,1065.8
2022-08-14T02:05:49.408Z,1104.4
2022-08-14T02:10:52.182Z,826.6
2022-08-14T02:15:56.252Z,8.4
2022-08-14T02:21:02.287Z,6.8
2022-08-14T02:26:18.286Z,10.5
2022-08-14T02:31:08.885Z,6
2022-08-14T02:36:46.022Z,6.5
2022-08-14T02:41:21.317Z,13.3
2022-08-14T02:46:24.488Z,1089.8
2022-08-14T02:51:22.977Z,982.6
2022-08-14T02:56:29.817Z,62.6
2022-08-14T03:01:43.228Z,44.7
2022-08-14T03:06:57.228Z,178.7
2022-08-14T03:11:40.045Z,327.9
2022-08-14T03:16:49.507Z,7.3
2022-08-14T03:21:54.227Z,103.3
2022-08-14T03:26:59.032Z,142.2
2022-08-14T03:32:02.279Z,91.5
2022-08-14T03:37:28.292Z,7.7
2022-08-14T03:42:13.428Z,6.9
2022-08-14T03:47:08.100Z,6.8
2022-08-14T03:52:17.879Z,6.4
2022-08-14T03:57:22.679Z,7.1
2022-08-14T04:02:32.045Z,6.2
2022-08-14T04:07:36.022Z,8.8
2022-08-14T04:12:39.317Z,60.7
2022-08-14T04:17:41.986Z,790.1
2022-08-14T04:22:50.448Z,39
2022-08-14T04:28:02.618Z,16.5
2022-08-14T04:33:06.494Z,22.6
2022-08-14T04:38:03.320Z,696.7
2022-08-14T04:43:13.123Z,137.1
2022-08-14T04:48:36.887Z,1075.8
2022-08-14T04:53:34.623Z,1104.4
2022-08-14T04:58:35.311Z,1104.4
2022-08-14T05:03:40.618Z,1104.4
2022-08-14T05:08:50.646Z,1104.4
2022-08-14T05:14:16.477Z,1104.4
2022-08-14T05:19:17.476Z,1104.4
2022-08-14T05:24:03.917Z,1060.8
2022-08-14T05:29:08.591Z,1080.4
2022-08-14T05:34:14.597Z,1065.3
2022-08-14T05:39:20.710Z,1067.7
2022-08-14T05:44:27.974Z,1102.5
2022-08-14T05:49:34.434Z,1069.3
2022-08-14T05:54:39.785Z,48
2022-08-14T05:59:44.195Z,52.3
2022-08-14T06:04:47.728Z,12.2
2022-08-14T06:09:52.423Z,8.2
2022-08-14T06:15:00.153Z,7.8
2022-08-14T06:20:10.283Z,8.3
2022-08-14T06:25:16.054Z,13
2022-08-14T06:30:14.823Z,8.6
2022-08-14T06:35:18.887Z,31.4
2022-08-14T06:40:26.146Z,523.7
2022-08-14T06:45:26.214Z,888.5
2022-08-14T06:50:30.122Z,1021.5
2022-08-14T06:55:36.964Z,1098.5
2022-08-14T07:00:42.192Z,1066.1
2022-08-14T07:05:55.185Z,1077.7
2022-08-14T07:10:50.703Z,1087.8
2022-08-14T07:15:51.113Z,1043.8
2022-08-14T07:20:56.302Z,1079.1
2022-08-14T07:25:58.917Z,668.2
2022-08-14T07:31:04.520Z,473.7
2022-08-14T07:36:26.799Z,301.8
2022-08-14T07:41:14.263Z,203.3
2022-08-14T07:46:21.094Z,267.4
2022-08-14T07:51:34.111Z,269.9
2022-08-14T07:56:43.804Z,209.9
2022-08-14T08:01:29.892Z,73
2022-08-14T08:06:32.683Z,128.8
2022-08-14T08:11:38.955Z,40.6
2022-08-14T08:16:43.966Z,54.6
2022-08-14T08:21:50.925Z,41.2
2022-08-14T08:26:57.894Z,65
2022-08-14T08:32:05.839Z,104.9
2022-08-14T08:37:07.211Z,51.5
2022-08-14T08:42:11.137Z,83.9
2022-08-14T08:47:11.452Z,102.6
2022-08-14T08:52:15.114Z,151
2022-08-14T08:57:24.575Z,174.3
2022-08-14T09:02:27.815Z,169.6
2022-08-14T09:07:33.557Z,276.3
2022-08-14T09:12:36.501Z,571.9
2022-08-14T09:17:36.444Z,1205.8
2022-08-14T09:22:48.026Z,7.8
2022-08-14T09:27:45.032Z,6.9
2022-08-14T09:32:58.551Z,8.8
2022-08-14T09:37:53.822Z,7.5
2022-08-14T09:43:04.241Z,11.4
2022-08-14T09:48:07.147Z,9.4
2022-08-14T09:53:17.855Z,6.6
2022-08-14T09:58:14.984Z,5.2
2022-08-14T10:03:16.323Z,12.1
2022-08-14T10:08:20.614Z,6.5
2022-08-14T10:13:37.110Z,9.1
2022-08-14T10:18:37.732Z,9.3
2022-08-14T10:23:41.645Z,5.9
2022-08-14T10:29:04.036Z,8.6
2022-08-14T10:33:50.940Z,5.4
2022-08-14T10:38:55.888Z,7.2
2022-08-14T10:44:00.937Z,6.1
2022-08-14T10:49:06.035Z,7.2
2022-08-14T10:54:16.670Z,6
2022-08-14T10:59:15.957Z,5.8
2022-08-14T11:04:25.042Z,22.7
2022-08-14T11:09:22.928Z,832.7
2022-08-14T11:14:23.102Z,1007.3
2022-08-14T11:19:29.320Z,1135.2
2022-08-14T11:24:51.099Z,641.8
2022-08-14T11:29:46.720Z,246.5
2022-08-14T11:34:55.589Z,138.1
2022-08-14T11:39:59.777Z,168.2
2022-08-14T11:45:02.836Z,204.4
2022-08-14T11:50:03.289Z,230.6
2022-08-14T11:55:05.638Z,215.7
2022-08-14T12:00:14.649Z,175.4
2022-08-14T12:05:16.475Z,174.9
2022-08-14T12:10:25.387Z,189.8
2022-08-14T12:15:26.257Z,394.6
2022-08-14T12:20:32.446Z,1409.7
2022-08-14T12:25:35.510Z,293.9
2022-08-14T12:30:39.956Z,3.6
2022-08-14T12:35:46.499Z,4.2
2022-08-14T12:40:49.880Z,4.5
2022-08-14T12:45:55.703Z,6
2022-08-14T12:51:01.147Z,5.5
2022-08-14T12:56:18.900Z,5.1
2022-08-14T13:01:16.564Z,5.2
2022-08-14T13:06:12.622Z,4.9
2022-08-14T13:11:19.381Z,5.2
2022-08-14T13:16:20.100Z,6.2
2022-08-14T13:21:20.195Z,4.7
2022-08-14T13:26:24.943Z,5
2022-08-14T13:31:34.220Z,5.4
2022-08-14T13:36:52.032Z,4.9
2022-08-14T13:41:46.643Z,4
2022-08-14T13:46:48.318Z,5.6
2022-08-14T13:51:55.155Z,5.9
2022-08-14T13:57:00.395Z,5.1
2022-08-14T14:02:03.574Z,4.2
2022-08-14T14:07:10.726Z,3.5
2022-08-14T14:12:36.297Z,3.7
2022-08-14T14:17:23.468Z,3.8
2022-08-14T14:22:34.413Z,3.7
2022-08-14T14:27:40.681Z,5
2022-08-14T14:32:52.478Z,6
2022-08-14T14:37:47.725Z,4.5
2022-08-14T14:42:51.941Z,5.6
2022-08-14T14:47:58.968Z,5.1
2022-08-14T14:53:00.852Z,4.8
2022-08-14T14:58:20.330Z,4.8
2022-08-14T15:03:13.153Z,5
2022-08-14T15:08:26.470Z,5.4
2022-08-14T15:13:24.653Z,4.8
2022-08-14T15:18:36.448Z,4.8
2022-08-14T15:23:43.948Z,4
2022-08-14T15:28:41.480Z,5
2022-08-14T15:34:00.793Z,4.9
2022-08-14T15:38:55.856Z,4.4
2022-08-14T15:44:00.454Z,7
2022-08-14T15:49:03.359Z,4.7
2022-08-14T15:54:05.148Z,4.7
2022-08-14T15:59:13.073Z,4.6
2022-08-14T16:04:17.400Z,6.7
2022-08-14T16:09:21.329Z,7.8
2022-08-14T16:14:24.951Z,9
2022-08-14T16:19:39.867Z,10.6
2022-08-14T16:24:57.874Z,384.9
2022-08-14T16:29:38.520Z,686.1
2022-08-14T16:34:53.350Z,709.9
2022-08-14T16:39:49.767Z,1014.1
2022-08-14T16:44:57.840Z,1066.1
2022-08-14T16:50:03.645Z,1179.2
2022-08-14T16:55:05.029Z,1003.5
2022-08-14T17:00:19.513Z,948.9
2022-08-14T17:05:14.716Z,643.1
2022-08-14T17:10:28.134Z,650.6
2022-08-14T17:15:27.429Z,458
2022-08-14T17:20:40.077Z,491.6
2022-08-14T17:25:35.118Z,301.9
2022-08-14T17:30:38.918Z,311.4
2022-08-14T17:35:58.099Z,216.2
2022-08-14T17:50:59.231Z,28.8
2022-08-14T17:56:00.410Z,151.3
2022-08-14T18:00:18.961Z,93
2022-08-14T18:05:23.153Z,108.1
2022-08-14T18:10:52.772Z,65
2022-08-14T18:15:33.704Z,182.5
2022-08-14T18:21:25.129Z,175.3
2022-08-14T18:25:39.172Z,75.7
2022-08-14T18:30:58.439Z,98.7
2022-08-14T18:35:45.569Z,66.4
2022-08-14T18:40:45.234Z,91.6
2022-08-14T18:45:48.756Z,88.6
2022-08-14T18:50:55.387Z,77.2
2022-08-14T18:55:59.885Z,88.3
2022-08-14T19:00:59.750Z,87.8
2022-08-14T19:06:04.613Z,66.2
2022-08-14T19:11:08.663Z,67.9
2022-08-14T19:16:15.667Z,89.5
2022-08-14T19:21:16.146Z,48.2
2022-08-14T19:26:34.550Z,60.8
2022-08-14T19:31:21.113Z,42.6
2022-08-14T19:36:28.981Z,60.6
2022-08-14T19:41:30.787Z,55.9
2022-08-14T19:46:38.359Z,55.8
2022-08-14T19:51:44.546Z,35.5
2022-08-14T19:56:50.860Z,38.7
2022-08-14T20:01:55.104Z,79.7
2022-08-14T20:06:55.571Z,62.7
2022-08-14T20:12:04.450Z,63.7
2022-08-14T20:17:08.641Z,30.8
2022-08-14T20:22:35.942Z,66.9
2022-08-14T20:27:13.649Z,50
2022-08-14T20:32:22.654Z,58.3
2022-08-14T20:37:47.092Z,60
2022-08-14T20:42:37.193Z,34.6
2022-08-14T20:47:48.191Z,56.2
2022-08-14T20:52:45.705Z,37.9
2022-08-14T20:57:54.760Z,48.7
2022-08-14T21:03:01.456Z,34.4
2022-08-14T21:08:10.114Z,77.7
2022-08-14T21:13:26.982Z,58.8
2022-08-14T21:18:23.684Z,51.9
2022-08-14T21:23:32.360Z,58.3
2022-08-14T21:28:35.669Z,57.1
2022-08-14T21:33:43.467Z,36.2
2022-08-14T21:38:47.120Z,55.1
2022-08-14T21:43:52.553Z,55.4
2022-08-14T21:48:56.525Z,40.9
2022-08-14T21:54:00.629Z,92.2
2022-08-14T21:59:09.485Z,51.3
2022-08-14T22:04:33.925Z,36.8
2022-08-14T22:09:24.566Z,60.8
2022-08-14T22:14:25.744Z,185.7
2022-08-14T22:19:34.761Z,1104.4
2022-08-14T22:24:53.139Z,1104.4
2022-08-14T22:29:42.787Z,1104.4
2022-08-14T22:34:49.315Z,1085.9
2022-08-14T22:40:17.986Z,1104.4
2022-08-14T22:44:56.596Z,1104.4
2022-08-14T22:50:29.739Z,1104.4
2022-08-14T22:54:53.861Z,1104.4
2022-08-14T22:59:59.397Z,1104.4
2022-08-14T23:05:06.276Z,1104.4
2022-08-14T23:10:31.384Z,1104.4
2022-08-14T23:15:16.823Z,1104.4
2022-08-14T23:20:19.873Z,1062.4
2022-08-14T23:25:32.561Z,1063
2022-08-14T23:30:31.356Z,1083.1
2022-08-14T23:35:29.283Z,1067.5
2022-08-14T23:40:36.824Z,1104.4
2022-08-14T23:45:39.868Z,1104.4
2022-08-14T23:50:44.874Z,1104.4
2022-08-14T23:55:54.464Z,993.1
